sensor_id;sensor_type;location;lat;lon;timestamp;pressure;altitude;pressure_sealevel;temperature;humidity
13954;BME280;7049;49.444;8.522;2023-01-29T00:03:15;80292.25;;;-3.47;72.76
13954;BME280;7049;49.444;8.522;2023-01-29T00:08:17;80294.34;;;-3.47;72.86
13954;BME280;7049;49.444;8.522;2023-01-29T00:13:18;80288.06;;;-3.47;73.54
13954;BME280;7049;49.444;8.522;2023-01-29T00:18:21;80283.88;;;-3.47;73.71
13954;BME280;7049;49.444;8.522;2023-01-29T00:23:23;80281.78;;;-3.47;73.35
13954;BME280;7049;49.444;8.522;2023-01-29T00:28:24;80283.88;;;-3.47;74.04
13954;BME280;7049;49.444;8.522;2023-01-29T00:33:29;80288.06;;;-3.47;74.42
13954;BME280;7049;49.444;8.522;2023-01-29T00:38:32;80292.25;;;-3.47;74.59
13954;BME280;7049;49.444;8.522;2023-01-29T00:43:34;80292.25;;;-3.47;75.10
13954;BME280;7049;49.444;8.522;2023-01-29T00:48:54;80292.25;;;-3.47;75.59
13954;BME280;7049;49.444;8.522;2023-01-29T00:53:56;80300.63;;;-3.47;75.51
13954;BME280;7049;49.444;8.522;2023-01-29T00:58:57;80306.91;;;-3.47;76.08
13954;BME280;7049;49.444;8.522;2023-01-29T01:04:00;80317.38;;;-3.47;76.13
13954;BME280;7049;49.444;8.522;2023-01-29T01:09:02;80321.56;;;-3.47;75.68
13954;BME280;7049;49.444;8.522;2023-01-29T01:14:36;80321.56;;;-3.47;75.38
13954;BME280;7049;49.444;8.522;2023-01-29T01:19:38;80329.94;;;-3.47;76.06
13954;BME280;7049;49.444;8.522;2023-01-29T01:24:40;80325.75;;;-3.47;76.28
13954;BME280;7049;49.444;8.522;2023-01-29T01:29:41;80321.56;;;-3.47;76.28
13954;BME280;7049;49.444;8.522;2023-01-29T01:34:44;80325.75;;;-3.47;76.43
13954;BME280;7049;49.444;8.522;2023-01-29T01:39:46;80317.38;;;-3.47;76.36
13954;BME280;7049;49.444;8.522;2023-01-29T01:44:52;80313.19;;;-3.47;76.74
13954;BME280;7049;49.444;8.522;2023-01-29T01:49:59;80321.56;;;-3.47;76.86
13954;BME280;7049;49.444;8.522;2023-01-29T01:55:02;80325.75;;;-3.47;76.84
13954;BME280;7049;49.444;8.522;2023-01-29T02:00:07;80311.09;;;-3.47;76.89
13954;BME280;7049;49.444;8.522;2023-01-29T02:05:13;80311.09;;;-3.47;76.56
13954;BME280;7049;49.444;8.522;2023-01-29T02:10:38;80309.00;;;-3.47;75.89
13954;BME280;7049;49.444;8.522;2023-01-29T02:15:41;80309.00;;;-3.47;75.12
13954;BME280;7049;49.444;8.522;2023-01-29T02:21:03;80313.19;;;-3.47;75.23
13954;BME280;7049;49.444;8.522;2023-01-29T02:26:38;80313.19;;;-3.47;75.26
13954;BME280;7049;49.444;8.522;2023-01-29T02:31:45;80300.63;;;-3.47;75.26
13954;BME280;7049;49.444;8.522;2023-01-29T02:36:50;80298.53;;;-3.47;75.62
13954;BME280;7049;49.444;8.522;2023-01-29T02:42:00;80294.34;;;-3.47;75.73
13954;BME280;7049;49.444;8.522;2023-01-29T02:47:09;80290.16;;;-3.47;75.47
13954;BME280;7049;49.444;8.522;2023-01-29T02:52:18;80304.81;;;-3.47;75.31
13954;BME280;7049;49.444;8.522;2023-01-29T02:57:23;80306.91;;;-3.47;75.29
13954;BME280;7049;49.444;8.522;2023-01-29T03:02:33;80319.47;;;-3.47;74.29
13954;BME280;7049;49.444;8.522;2023-01-29T03:07:38;80327.88;;;-3.47;74.83
13954;BME280;7049;49.444;8.522;2023-01-29T03:12:43;80332.03;;;-3.47;75.46
13954;BME280;7049;49.444;8.522;2023-01-29T03:17:52;80344.63;;;-3.47;75.97
13954;BME280;7049;49.444;8.522;2023-01-29T03:22:57;80350.91;;;-3.47;76.44
13954;BME280;7049;49.444;8.522;2023-01-29T03:28:03;80353.00;;;-3.47;76.49
13954;BME280;7049;49.444;8.522;2023-01-29T03:33:26;80365.56;;;-3.47;76.85
13954;BME280;7049;49.444;8.522;2023-01-29T03:38:32;80388.59;;;-3.47;76.71
13954;BME280;7049;49.444;8.522;2023-01-29T03:43:38;80390.69;;;-3.47;77.21
13954;BME280;7049;49.444;8.522;2023-01-29T03:48:50;80396.97;;;-3.47;77.46
13954;BME280;7049;49.444;8.522;2023-01-29T03:54:00;80401.16;;;-3.47;77.93
13954;BME280;7049;49.444;8.522;2023-01-29T03:59:15;80409.53;;;-3.47;78.25
13954;BME280;7049;49.444;8.522;2023-01-29T04:04:23;80430.47;;;-3.47;78.65
13954;BME280;7049;49.444;8.522;2023-01-29T04:09:29;80426.28;;;-3.47;78.92
13954;BME280;7049;49.444;8.522;2023-01-29T04:14:32;80434.66;;;-3.47;79.03
13954;BME280;7049;49.444;8.522;2023-01-29T04:19:34;80443.03;;;-3.47;79.21
13954;BME280;7049;49.444;8.522;2023-01-29T04:24:36;80440.94;;;-3.47;79.03
13954;BME280;7049;49.444;8.522;2023-01-29T04:29:47;80440.94;;;-3.47;78.86
13954;BME280;7049;49.444;8.522;2023-01-29T04:34:59;80436.75;;;-3.47;78.42
13954;BME280;7049;49.444;8.522;2023-01-29T04:40:10;80445.13;;;-3.47;78.18
13954;BME280;7049;49.444;8.522;2023-01-29T04:45:19;80449.31;;;-3.47;77.85
13954;BME280;7049;49.444;8.522;2023-01-29T04:50:27;80447.22;;;-3.47;78.33
13954;BME280;7049;49.444;8.522;2023-01-29T04:55:34;80443.03;;;-3.47;78.94
13954;BME280;7049;49.444;8.522;2023-01-29T05:00:40;80430.47;;;-3.47;78.75
13954;BME280;7049;49.444;8.522;2023-01-29T05:05:46;80426.28;;;-3.47;78.92
13954;BME280;7049;49.444;8.522;2023-01-29T05:10:50;80451.41;;;-3.47;79.22
13954;BME280;7049;49.444;8.522;2023-01-29T05:15:55;80445.13;;;-3.47;79.04
13954;BME280;7049;49.444;8.522;2023-01-29T05:21:02;80472.34;;;-3.47;79.26
13954;BME280;7049;49.444;8.522;2023-01-29T05:26:05;80476.53;;;-3.47;79.26
13954;BME280;7049;49.444;8.522;2023-01-29T05:31:06;80491.19;;;-3.47;79.55
13954;BME280;7049;49.444;8.522;2023-01-29T05:36:10;80501.66;;;-3.47;79.67
13954;BME280;7049;49.444;8.522;2023-01-29T05:41:11;80516.31;;;-3.47;79.62
13954;BME280;7049;49.444;8.522;2023-01-29T05:46:13;80526.78;;;-3.47;79.69
13954;BME280;7049;49.444;8.522;2023-01-29T05:51:15;80528.88;;;-3.47;80.08
13954;BME280;7049;49.444;8.522;2023-01-29T05:56:17;80528.88;;;-3.47;80.74
13954;BME280;7049;49.444;8.522;2023-01-29T06:01:21;80526.78;;;-3.47;81.23
13954;BME280;7049;49.444;8.522;2023-01-29T06:06:24;80537.28;;;-3.47;81.39
13954;BME280;7049;49.444;8.522;2023-01-29T06:11:25;80530.97;;;-3.47;81.65
13954;BME280;7049;49.444;8.522;2023-01-29T06:16:27;80535.16;;;-3.47;82.17
13954;BME280;7049;49.444;8.522;2023-01-29T06:21:29;80541.44;;;-3.47;82.54
13954;BME280;7049;49.444;8.522;2023-01-29T06:26:31;80551.94;;;-3.47;82.96
13954;BME280;7049;49.444;8.522;2023-01-29T06:31:32;80556.13;;;-3.47;82.90
13954;BME280;7049;49.444;8.522;2023-01-29T06:36:35;80551.94;;;-3.47;83.10
13954;BME280;7049;49.444;8.522;2023-01-29T06:41:37;80539.38;;;-3.47;83.50
13954;BME280;7049;49.444;8.522;2023-01-29T06:46:38;80539.38;;;-3.47;83.73
13954;BME280;7049;49.444;8.522;2023-01-29T06:51:41;80533.09;;;-3.47;83.66
13954;BME280;7049;49.444;8.522;2023-01-29T06:56:42;80530.97;;;-3.47;84.13
13954;BME280;7049;49.444;8.522;2023-01-29T07:01:44;80539.38;;;-3.47;83.93
13954;BME280;7049;49.444;8.522;2023-01-29T07:06:46;80547.75;;;-3.47;83.74
13954;BME280;7049;49.444;8.522;2023-01-29T07:11:48;80547.75;;;-3.47;84.07
13954;BME280;7049;49.444;8.522;2023-01-29T07:16:49;80560.31;;;-3.47;84.37
13954;BME280;7049;49.444;8.522;2023-01-29T07:21:52;80556.13;;;-3.47;84.81
13954;BME280;7049;49.444;8.522;2023-01-29T07:26:53;80558.22;;;-3.47;84.85
13954;BME280;7049;49.444;8.522;2023-01-29T07:31:55;80551.94;;;-3.47;84.69
13954;BME280;7049;49.444;8.522;2023-01-29T07:36:58;80551.94;;;-3.47;84.96
13954;BME280;7049;49.444;8.522;2023-01-29T07:41:59;80556.13;;;-3.47;85.07
13954;BME280;7049;49.444;8.522;2023-01-29T07:47:01;80551.94;;;-3.47;84.75
13954;BME280;7049;49.444;8.522;2023-01-29T07:52:04;80556.13;;;-3.47;85.16
13954;BME280;7049;49.444;8.522;2023-01-29T07:57:06;80560.31;;;-3.47;85.80
13954;BME280;7049;49.444;8.522;2023-01-29T08:02:07;80564.50;;;-3.47;85.85
13954;BME280;7049;49.444;8.522;2023-01-29T08:07:10;80560.31;;;-3.47;85.92
13954;BME280;7049;49.444;8.522;2023-01-29T08:12:12;80558.22;;;-3.47;86.19
13954;BME280;7049;49.444;8.522;2023-01-29T08:17:14;80547.75;;;-3.47;86.21
13954;BME280;7049;49.444;8.522;2023-01-29T08:22:17;80526.78;;;-3.47;85.81
13954;BME280;7049;49.444;8.522;2023-01-29T08:27:19;80518.41;;;-3.47;85.80
13954;BME280;7049;49.444;8.522;2023-01-29T08:32:20;80491.19;;;-3.47;85.48
13954;BME280;7049;49.444;8.522;2023-01-29T08:37:23;80478.63;;;-3.47;84.89
13954;BME280;7049;49.444;8.522;2023-01-29T08:42:25;80457.69;;;-3.47;83.97
13954;BME280;7049;49.444;8.522;2023-01-29T08:47:26;80451.41;;;-3.47;83.35
13954;BME280;7049;49.444;8.522;2023-01-29T08:52:29;80443.03;;;-3.47;82.62
13954;BME280;7049;49.444;8.522;2023-01-29T08:57:30;80438.84;;;-3.47;81.59
13954;BME280;7049;49.444;8.522;2023-01-29T09:02:32;80399.06;;;-3.47;80.11
13954;BME280;7049;49.444;8.522;2023-01-29T09:07:35;80350.91;;;-3.47;78.59
13954;BME280;7049;49.444;8.522;2023-01-29T09:12:36;80300.63;;;-3.47;78.41
13954;BME280;7049;49.444;8.522;2023-01-29T09:17:38;80258.75;;;-3.47;74.50
13954;BME280;7049;49.444;8.522;2023-01-29T09:22:41;80221.06;;;-3.47;75.76
13954;BME280;7049;49.444;8.522;2023-01-29T09:27:42;80206.41;;;-3.47;71.72
13954;BME280;7049;49.444;8.522;2023-01-29T09:32:44;80170.81;;;-3.47;73.75
13954;BME280;7049;49.444;8.522;2023-01-29T09:37:47;80154.06;;;-3.47;71.16
13954;BME280;7049;49.444;8.522;2023-01-29T09:42:54;80149.88;;;-3.47;65.35
13954;BME280;7049;49.444;8.522;2023-01-29T09:47:59;80145.69;;;-3.47;66.70
13954;BME280;7049;49.444;8.522;2023-01-29T09:53:11;80124.75;;;-3.47;68.20
13954;BME280;7049;49.444;8.522;2023-01-29T09:58:17;80133.13;;;-3.47;66.53
13954;BME280;7049;49.444;8.522;2023-01-29T10:09:01;80170.81;;;-3.47;67.41
13954;BME280;7049;49.444;8.522;2023-01-29T10:14:14;80172.91;;;-3.47;68.37
13954;BME280;7049;49.444;8.522;2023-01-29T10:19:42;80181.28;;;-3.47;68.83
13954;BME280;7049;49.444;8.522;2023-01-29T10:24:52;80187.56;;;-3.47;69.89
13954;BME280;7049;49.444;8.522;2023-01-29T10:29:58;80166.63;;;-3.47;70.36
13954;BME280;7049;49.444;8.522;2023-01-29T10:35:02;80170.81;;;-3.47;70.09
13954;BME280;7049;49.444;8.522;2023-01-29T10:40:17;80166.63;;;-3.47;70.15
13954;BME280;7049;49.444;8.522;2023-01-29T10:45:25;80166.63;;;-3.47;69.83
13954;BME280;7049;49.444;8.522;2023-01-29T10:50:45;80156.16;;;-3.47;68.63
13954;BME280;7049;49.444;8.522;2023-01-29T10:55:57;80151.97;;;-3.47;69.41
13954;BME280;7049;49.444;8.522;2023-01-29T11:01:01;80137.31;;;-3.47;69.96
13954;BME280;7049;49.444;8.522;2023-01-29T11:06:10;80128.94;;;-3.47;69.77
13954;BME280;7049;49.444;8.522;2023-01-29T11:11:15;80108.00;;;-3.47;68.99
13954;BME280;7049;49.444;8.522;2023-01-29T11:16:17;80080.78;;;-3.47;68.58
13954;BME280;7049;49.444;8.522;2023-01-29T11:21:20;80070.31;;;-3.47;63.93
13954;BME280;7049;49.444;8.522;2023-01-29T11:26:23;80068.22;;;-3.47;63.46
13954;BME280;7049;49.444;8.522;2023-01-29T11:31:26;80053.56;;;-3.47;63.83
13954;BME280;7049;49.444;8.522;2023-01-29T11:36:31;80041.00;;;-3.47;64.10
13954;BME280;7049;49.444;8.522;2023-01-29T11:41:42;80007.50;;;-3.47;62.36
13954;BME280;7049;49.444;8.522;2023-01-29T11:46:43;79978.19;;;-3.47;61.57
13954;BME280;7049;49.444;8.522;2023-01-29T11:51:50;79946.78;;;-3.47;59.85
13954;BME280;7049;49.444;8.522;2023-01-29T11:56:54;79898.63;;;-3.47;57.63
13954;BME280;7049;49.444;8.522;2023-01-29T12:02:03;79879.78;;;-3.47;56.33
13954;BME280;7049;49.444;8.522;2023-01-29T12:07:11;79840.00;;;-3.47;55.51
13954;BME280;7049;49.444;8.522;2023-01-29T12:12:27;79791.84;;;-3.47;54.90
13954;BME280;7049;49.444;8.522;2023-01-29T12:17:29;79768.81;;;-3.47;52.46
13954;BME280;7049;49.444;8.522;2023-01-29T12:22:39;79739.50;;;-3.47;53.06
13954;BME280;7049;49.444;8.522;2023-01-29T12:27:47;79714.38;;;-3.47;50.76
13954;BME280;7049;49.444;8.522;2023-01-29T12:32:55;79708.09;;;-3.47;50.36
13954;BME280;7049;49.444;8.522;2023-01-29T12:38:02;79685.06;;;-3.47;53.19
13954;BME280;7049;49.444;8.522;2023-01-29T12:43:13;79670.41;;;-3.47;49.17
13954;BME280;7049;49.444;8.522;2023-01-29T12:48:20;79676.69;;;-3.47;48.56
13954;BME280;7049;49.444;8.522;2023-01-29T12:53:26;79685.06;;;-3.47;49.27
13954;BME280;7049;49.444;8.522;2023-01-29T12:58:33;79682.97;;;-3.47;49.84
13954;BME280;7049;49.444;8.522;2023-01-29T13:03:44;79680.88;;;-3.47;50.52
13954;BME280;7049;49.444;8.522;2023-01-29T13:08:50;79676.69;;;-3.47;48.83
13954;BME280;7049;49.444;8.522;2023-01-29T13:13:58;79680.88;;;-3.47;50.72
13954;BME280;7049;49.444;8.522;2023-01-29T13:19:03;79691.34;;;-3.47;50.27
13954;BME280;7049;49.444;8.522;2023-01-29T13:24:11;79699.72;;;-3.47;50.34
13954;BME280;7049;49.444;8.522;2023-01-29T13:29:21;79695.53;;;-3.47;51.80
13954;BME280;7049;49.444;8.522;2023-01-29T13:34:24;79695.53;;;-3.47;51.01
13954;BME280;7049;49.444;8.522;2023-01-29T13:39:29;79691.34;;;-3.47;49.14
13954;BME280;7049;49.444;8.522;2023-01-29T13:44:34;79693.44;;;-3.47;50.50
13954;BME280;7049;49.444;8.522;2023-01-29T13:49:39;79701.81;;;-3.47;51.17
13954;BME280;7049;49.444;8.522;2023-01-29T13:54:49;79714.38;;;-3.47;51.63
13954;BME280;7049;49.444;8.522;2023-01-29T13:59:54;79689.25;;;-3.47;51.18
13954;BME280;7049;49.444;8.522;2023-01-29T14:10:36;79689.25;;;-3.47;52.16
13954;BME280;7049;49.444;8.522;2023-01-29T14:15:39;79676.69;;;-3.47;53.50
13954;BME280;7049;49.444;8.522;2023-01-29T14:21:00;79701.81;;;-3.47;52.62
13954;BME280;7049;49.444;8.522;2023-01-29T14:26:04;79712.28;;;-3.47;52.32
13954;BME280;7049;49.444;8.522;2023-01-29T14:31:09;79718.56;;;-3.47;53.96
13954;BME280;7049;49.444;8.522;2023-01-29T14:36:12;79720.66;;;-3.47;52.70
13954;BME280;7049;49.444;8.522;2023-01-29T14:41:22;79718.56;;;-3.47;52.27
13954;BME280;7049;49.444;8.522;2023-01-29T14:46:43;79718.56;;;-3.47;51.68
13954;BME280;7049;49.444;8.522;2023-01-29T14:51:44;79720.66;;;-3.47;52.92
13954;BME280;7049;49.444;8.522;2023-01-29T14:56:55;79722.75;;;-3.47;53.14
13954;BME280;7049;49.444;8.522;2023-01-29T15:02:03;79731.13;;;-3.47;53.71
13954;BME280;7049;49.444;8.522;2023-01-29T15:07:14;79731.13;;;-3.47;54.40
13954;BME280;7049;49.444;8.522;2023-01-29T15:12:24;79739.50;;;-3.47;53.81
13954;BME280;7049;49.444;8.522;2023-01-29T15:17:32;79749.97;;;-3.47;54.19
13954;BME280;7049;49.444;8.522;2023-01-29T15:22:41;79766.72;;;-3.47;54.37
13954;BME280;7049;49.444;8.522;2023-01-29T15:27:44;79779.28;;;-3.47;55.43
13954;BME280;7049;49.444;8.522;2023-01-29T15:32:47;79796.03;;;-3.47;56.68
13954;BME280;7049;49.444;8.522;2023-01-29T15:37:57;79802.31;;;-3.47;58.27
13954;BME280;7049;49.444;8.522;2023-01-29T15:42:59;79808.59;;;-3.47;57.48
13954;BME280;7049;49.444;8.522;2023-01-29T15:48:05;79821.16;;;-3.47;57.68
13954;BME280;7049;49.444;8.522;2023-01-29T15:53:14;79825.34;;;-3.47;57.93
13954;BME280;7049;49.444;8.522;2023-01-29T15:58:18;79840.00;;;-3.47;59.41
13954;BME280;7049;49.444;8.522;2023-01-29T16:03:24;79844.19;;;-3.47;60.46
13954;BME280;7049;49.444;8.522;2023-01-29T16:08:27;79844.19;;;-3.47;60.89
13954;BME280;7049;49.444;8.522;2023-01-29T16:13:31;79846.28;;;-3.47;61.48
13954;BME280;7049;49.444;8.522;2023-01-29T16:18:36;79854.66;;;-3.47;62.71
13954;BME280;7049;49.444;8.522;2023-01-29T16:23:41;79858.84;;;-3.47;63.97
13954;BME280;7049;49.444;8.522;2023-01-29T16:28:45;79869.31;;;-3.47;64.95
13954;BME280;7049;49.444;8.522;2023-01-29T16:33:48;79873.50;;;-3.47;65.73
13954;BME280;7049;49.444;8.522;2023-01-29T16:38:54;79883.97;;;-3.47;66.06
13954;BME280;7049;49.444;8.522;2023-01-29T16:43:57;79890.25;;;-3.47;66.68
13954;BME280;7049;49.444;8.522;2023-01-29T16:54:31;79902.81;;;-3.47;67.14
13954;BME280;7049;49.444;8.522;2023-01-29T16:59:34;79915.38;;;-3.47;66.93
13954;BME280;7049;49.444;8.522;2023-01-29T17:04:39;79919.56;;;-3.47;67.43
13954;BME280;7049;49.444;8.522;2023-01-29T17:09:41;79919.56;;;-3.47;67.14
13954;BME280;7049;49.444;8.522;2023-01-29T17:14:51;79930.03;;;-3.47;68.00
13954;BME280;7049;49.444;8.522;2023-01-29T17:19:54;79948.88;;;-3.47;68.03
13954;BME280;7049;49.444;8.522;2023-01-29T17:24:56;79957.25;;;-3.47;68.73
13954;BME280;7049;49.444;8.522;2023-01-29T17:29:57;79967.72;;;-3.47;69.87
13954;BME280;7049;49.444;8.522;2023-01-29T17:35:00;79961.44;;;-3.47;70.15
13954;BME280;7049;49.444;8.522;2023-01-29T17:40:02;79971.91;;;-3.47;70.12
13954;BME280;7049;49.444;8.522;2023-01-29T17:45:05;79992.84;;;-3.47;70.80
13954;BME280;7049;49.444;8.522;2023-01-29T17:50:18;80013.78;;;-3.47;71.65
13954;BME280;7049;49.444;8.522;2023-01-29T17:55:21;80028.44;;;-3.47;72.10
13954;BME280;7049;49.444;8.522;2023-01-29T18:00:23;80041.00;;;-3.47;72.47
13954;BME280;7049;49.444;8.522;2023-01-29T18:05:26;80047.28;;;-3.47;72.69
13954;BME280;7049;49.444;8.522;2023-01-29T18:10:28;80070.31;;;-3.47;73.15
13954;BME280;7049;49.444;8.522;2023-01-29T18:15:30;80078.69;;;-3.47;73.56
13954;BME280;7049;49.444;8.522;2023-01-29T18:20:33;80093.34;;;-3.47;73.84
13954;BME280;7049;49.444;8.522;2023-01-29T18:25:38;80099.63;;;-3.47;74.40
13954;BME280;7049;49.444;8.522;2023-01-29T18:30:39;80108.00;;;-3.47;75.13
13954;BME280;7049;49.444;8.522;2023-01-29T18:35:43;80110.09;;;-3.47;75.70
13954;BME280;7049;49.444;8.522;2023-01-29T18:40:45;80122.66;;;-3.47;76.18
13954;BME280;7049;49.444;8.522;2023-01-29T18:45:46;80124.75;;;-3.47;77.46
13954;BME280;7049;49.444;8.522;2023-01-29T18:50:50;80118.47;;;-3.47;79.26
13954;BME280;7049;49.444;8.522;2023-01-29T18:55:56;80120.56;;;-3.47;79.04
13954;BME280;7049;49.444;8.522;2023-01-29T19:00:57;80116.38;;;-3.47;79.44
13954;BME280;7049;49.444;8.522;2023-01-29T19:06:01;80124.75;;;-3.47;79.79
13954;BME280;7049;49.444;8.522;2023-01-29T19:11:03;80128.94;;;-3.47;80.16
13954;BME280;7049;49.444;8.522;2023-01-29T19:16:08;80133.13;;;-3.47;79.92
13954;BME280;7049;49.444;8.522;2023-01-29T19:21:13;80143.59;;;-3.47;80.18
13954;BME280;7049;49.444;8.522;2023-01-29T19:26:15;80149.88;;;-3.47;80.22
13954;BME280;7049;49.444;8.522;2023-01-29T19:31:16;80154.06;;;-3.47;80.22
13954;BME280;7049;49.444;8.522;2023-01-29T19:36:19;80162.44;;;-3.47;80.37
13954;BME280;7049;49.444;8.522;2023-01-29T19:41:21;80162.44;;;-3.47;80.71
13954;BME280;7049;49.444;8.522;2023-01-29T19:46:22;80166.63;;;-3.47;81.20
13954;BME280;7049;49.444;8.522;2023-01-29T19:51:25;80175.00;;;-3.47;81.37
13954;BME280;7049;49.444;8.522;2023-01-29T19:56:27;80183.38;;;-3.47;81.81
13954;BME280;7049;49.444;8.522;2023-01-29T20:01:28;80193.84;;;-3.47;81.97
13954;BME280;7049;49.444;8.522;2023-01-29T20:06:31;80202.22;;;-3.47;81.51
13954;BME280;7049;49.444;8.522;2023-01-29T20:11:33;80208.50;;;-3.47;82.23
13954;BME280;7049;49.444;8.522;2023-01-29T20:16:34;80212.69;;;-3.47;82.24
13954;BME280;7049;49.444;8.522;2023-01-29T20:21:37;80221.06;;;-3.47;82.34
13954;BME280;7049;49.444;8.522;2023-01-29T20:26:40;80225.25;;;-3.47;82.31
13954;BME280;7049;49.444;8.522;2023-01-29T20:31:41;80221.06;;;-3.47;82.64
13954;BME280;7049;49.444;8.522;2023-01-29T20:36:44;80235.72;;;-3.47;82.93
13954;BME280;7049;49.444;8.522;2023-01-29T20:41:45;80239.91;;;-3.47;83.23
13954;BME280;7049;49.444;8.522;2023-01-29T20:46:47;80244.09;;;-3.47;83.50
13954;BME280;7049;49.444;8.522;2023-01-29T20:51:49;80250.38;;;-3.47;84.04
13954;BME280;7049;49.444;8.522;2023-01-29T20:56:51;80258.75;;;-3.47;84.24
13954;BME280;7049;49.444;8.522;2023-01-29T21:01:52;80258.75;;;-3.47;84.35
13954;BME280;7049;49.444;8.522;2023-01-29T21:06:55;80262.94;;;-3.47;84.69
13954;BME280;7049;49.444;8.522;2023-01-29T21:11:56;80258.75;;;-3.47;85.09
13954;BME280;7049;49.444;8.522;2023-01-29T21:16:58;80242.00;;;-3.47;85.82
13954;BME280;7049;49.444;8.522;2023-01-29T21:22:00;80239.91;;;-3.47;86.52
13954;BME280;7049;49.444;8.522;2023-01-29T21:27:02;80227.34;;;-3.47;87.37
13954;BME280;7049;49.444;8.522;2023-01-29T21:32:04;80216.88;;;-3.47;87.39
13954;BME280;7049;49.444;8.522;2023-01-29T21:37:06;80208.50;;;-3.47;87.50
13954;BME280;7049;49.444;8.522;2023-01-29T21:42:08;80206.41;;;-3.47;87.46
13954;BME280;7049;49.444;8.522;2023-01-29T21:47:27;80200.13;;;-3.47;87.26
13954;BME280;7049;49.444;8.522;2023-01-29T21:52:30;80198.03;;;-3.47;87.48
13954;BME280;7049;49.444;8.522;2023-01-29T21:57:32;80195.94;;;-3.47;88.28
13954;BME280;7049;49.444;8.522;2023-01-29T22:02:33;80185.47;;;-3.47;88.93
13954;BME280;7049;49.444;8.522;2023-01-29T22:07:36;80175.00;;;-3.47;88.98
13954;BME280;7049;49.444;8.522;2023-01-29T22:12:38;80172.91;;;-3.47;89.35
13954;BME280;7049;49.444;8.522;2023-01-29T22:17:39;80166.63;;;-3.47;89.70
13954;BME280;7049;49.444;8.522;2023-01-29T22:22:42;80166.63;;;-3.47;89.63
13954;BME280;7049;49.444;8.522;2023-01-29T22:27:44;80166.63;;;-3.47;89.90
13954;BME280;7049;49.444;8.522;2023-01-29T22:32:45;80170.81;;;-3.47;89.80
13954;BME280;7049;49.444;8.522;2023-01-29T22:37:48;80160.34;;;-3.47;89.96
13954;BME280;7049;49.444;8.522;2023-01-29T22:42:49;80141.50;;;-3.47;91.46
13954;BME280;7049;49.444;8.522;2023-01-29T22:47:50;80128.94;;;-3.47;92.19
13954;BME280;7049;49.444;8.522;2023-01-29T22:52:53;80116.38;;;-3.47;92.32
13954;BME280;7049;49.444;8.522;2023-01-29T22:57:55;80091.25;;;-3.47;92.27
13954;BME280;7049;49.444;8.522;2023-01-29T23:02:56;80066.13;;;-3.47;91.57
13954;BME280;7049;49.444;8.522;2023-01-29T23:07:59;80043.09;;;-3.47;91.19
13954;BME280;7049;49.444;8.522;2023-01-29T23:13:00;80022.16;;;-3.47;90.90
13954;BME280;7049;49.444;8.522;2023-01-29T23:18:02;80005.41;;;-3.47;91.05
13954;BME280;7049;49.444;8.522;2023-01-29T23:23:05;79982.38;;;-3.47;90.33
13954;BME280;7049;49.444;8.522;2023-01-29T23:28:07;79974.00;;;-3.47;89.55
13954;BME280;7049;49.444;8.522;2023-01-29T23:33:09;79957.25;;;-3.47;89.51
13954;BME280;7049;49.444;8.522;2023-01-29T23:38:12;79940.50;;;-3.47;88.97
13954;BME280;7049;49.444;8.522;2023-01-29T23:43:13;79915.38;;;-3.47;89.04
13954;BME280;7049;49.444;8.522;2023-01-29T23:48:14;79898.63;;;-3.47;88.89
13954;BME280;7049;49.444;8.522;2023-01-29T23:53:17;79898.63;;;-3.47;88.68
13954;BME280;7049;49.444;8.522;2023-01-29T23:58:19;79900.72;;;-3.47;88.29
